Terminal Aerodrome Forecast
Issued by NWS

Home | Current Version | Previous Version | Text Only | Print | Product List | Glossary On
Versions: 1 2 3 4 5 6 7 8 9 10 11 12 13 14 15
228
FTUS44 KTSA 260520
TAFXNA
TAF
KXNA 260520Z 2606/2706 02003KT P6SM BKN100
     FM261600 20006KT P6SM BKN250
     FM270000 VRB03KT P6SM BKN100=

USA.gov is the U.S. government's official web portal to all federal, state and local government web resources and services.